sensor_id;sensor_type;location;lat;lon;timestamp;P1;durP1;ratioP1;P2;durP2;ratioP2
10717;SDS011;13513;42.700;23.124;2023-05-27T00:02:27;9.45;;;6.20;;
10717;SDS011;13513;42.700;23.124;2023-05-27T00:04:58;8.78;;;7.35;;
10717;SDS011;13513;42.700;23.124;2023-05-27T00:07:29;10.65;;;6.67;;
10717;SDS011;13513;42.700;23.124;2023-05-27T00:10:00;7.10;;;6.40;;
10717;SDS011;13513;42.700;23.124;2023-05-27T00:12:31;19.30;;;11.88;;
10717;SDS011;13513;42.700;23.124;2023-05-27T00:15:02;8.75;;;6.15;;
10717;SDS011;13513;42.700;23.124;2023-05-27T00:17:32;6.12;;;5.53;;
10717;SDS011;13513;42.700;23.124;2023-05-27T00:20:04;8.98;;;6.67;;
10717;SDS011;13513;42.700;23.124;2023-05-27T00:22:35;12.95;;;7.95;;
10717;SDS011;13513;42.700;23.124;2023-05-27T00:25:08;10.48;;;8.00;;
10717;SDS011;13513;42.700;23.124;2023-05-27T00:27:39;19.52;;;10.65;;
10717;SDS011;13513;42.700;23.124;2023-05-27T00:30:11;12.68;;;9.88;;
10717;SDS011;13513;42.700;23.124;2023-05-27T00:32:41;19.90;;;13.55;;
10717;SDS011;13513;42.700;23.124;2023-05-27T00:35:13;52.03;;;31.95;;
10717;SDS011;13513;42.700;23.124;2023-05-27T00:37:44;18.17;;;10.98;;
10717;SDS011;13513;42.700;23.124;2023-05-27T00:40:17;13.38;;;10.10;;
10717;SDS011;13513;42.700;23.124;2023-05-27T00:42:48;9.58;;;8.63;;
10717;SDS011;13513;42.700;23.124;2023-05-27T00:45:19;13.18;;;10.25;;
10717;SDS011;13513;42.700;23.124;2023-05-27T00:47:49;15.45;;;11.28;;
10717;SDS011;13513;42.700;23.124;2023-05-27T00:50:20;17.82;;;15.08;;
10717;SDS011;13513;42.700;23.124;2023-05-27T00:52:51;24.70;;;19.57;;
10717;SDS011;13513;42.700;23.124;2023-05-27T00:55:25;33.25;;;25.12;;
10717;SDS011;13513;42.700;23.124;2023-05-27T00:57:59;26.25;;;19.98;;
10717;SDS011;13513;42.700;23.124;2023-05-27T01:00:30;30.12;;;22.62;;
10717;SDS011;13513;42.700;23.124;2023-05-27T01:03:00;24.63;;;18.73;;
10717;SDS011;13513;42.700;23.124;2023-05-27T01:05:31;24.35;;;17.17;;
10717;SDS011;13513;42.700;23.124;2023-05-27T01:08:19;21.62;;;16.67;;
10717;SDS011;13513;42.700;23.124;2023-05-27T01:10:52;17.52;;;15.15;;
10717;SDS011;13513;42.700;23.124;2023-05-27T01:13:33;18.67;;;16.15;;
10717;SDS011;13513;42.700;23.124;2023-05-27T01:16:09;18.62;;;15.18;;
10717;SDS011;13513;42.700;23.124;2023-05-27T01:18:41;19.45;;;14.43;;
10717;SDS011;13513;42.700;23.124;2023-05-27T01:21:15;15.98;;;14.13;;
10717;SDS011;13513;42.700;23.124;2023-05-27T01:23:46;16.55;;;14.00;;
10717;SDS011;13513;42.700;23.124;2023-05-27T01:26:17;20.52;;;16.12;;
10717;SDS011;13513;42.700;23.124;2023-05-27T01:28:48;21.07;;;16.80;;
10717;SDS011;13513;42.700;23.124;2023-05-27T01:31:25;20.68;;;17.17;;
10717;SDS011;13513;42.700;23.124;2023-05-27T01:33:55;21.65;;;15.98;;
10717;SDS011;13513;42.700;23.124;2023-05-27T01:36:25;18.65;;;16.35;;
10717;SDS011;13513;42.700;23.124;2023-05-27T01:38:58;22.45;;;17.07;;
10717;SDS011;13513;42.700;23.124;2023-05-27T01:41:29;19.05;;;16.55;;
10717;SDS011;13513;42.700;23.124;2023-05-27T01:44:01;21.68;;;17.02;;
10717;SDS011;13513;42.700;23.124;2023-05-27T01:46:33;21.15;;;16.12;;
10717;SDS011;13513;42.700;23.124;2023-05-27T01:49:04;21.50;;;15.38;;
10717;SDS011;13513;42.700;23.124;2023-05-27T01:51:36;16.57;;;14.90;;
10717;SDS011;13513;42.700;23.124;2023-05-27T01:54:07;19.52;;;15.35;;
10717;SDS011;13513;42.700;23.124;2023-05-27T01:56:37;20.82;;;15.40;;
10717;SDS011;13513;42.700;23.124;2023-05-27T01:59:08;17.45;;;15.18;;
10717;SDS011;13513;42.700;23.124;2023-05-27T02:01:39;16.77;;;15.00;;
10717;SDS011;13513;42.700;23.124;2023-05-27T02:04:10;17.95;;;14.95;;
10717;SDS011;13513;42.700;23.124;2023-05-27T02:06:41;15.10;;;13.38;;
10717;SDS011;13513;42.700;23.124;2023-05-27T02:09:12;15.90;;;12.55;;
10717;SDS011;13513;42.700;23.124;2023-05-27T02:11:42;14.90;;;12.80;;
10717;SDS011;13513;42.700;23.124;2023-05-27T02:14:14;12.60;;;11.05;;
10717;SDS011;13513;42.700;23.124;2023-05-27T02:16:45;13.45;;;11.40;;
10717;SDS011;13513;42.700;23.124;2023-05-27T02:19:16;14.28;;;10.35;;
10717;SDS011;13513;42.700;23.124;2023-05-27T02:21:47;9.65;;;8.65;;
10717;SDS011;13513;42.700;23.124;2023-05-27T02:24:18;7.55;;;6.85;;
10717;SDS011;13513;42.700;23.124;2023-05-27T02:26:49;4.72;;;4.33;;
10717;SDS011;13513;42.700;23.124;2023-05-27T02:29:20;4.25;;;3.83;;
10717;SDS011;13513;42.700;23.124;2023-05-27T02:31:51;4.47;;;4.08;;
10717;SDS011;13513;42.700;23.124;2023-05-27T02:34:22;3.83;;;3.47;;
10717;SDS011;13513;42.700;23.124;2023-05-27T02:36:53;7.75;;;3.95;;
10717;SDS011;13513;42.700;23.124;2023-05-27T02:39:24;6.33;;;4.10;;
10717;SDS011;13513;42.700;23.124;2023-05-27T02:41:54;4.10;;;3.62;;
10717;SDS011;13513;42.700;23.124;2023-05-27T02:44:25;5.58;;;3.70;;
10717;SDS011;13513;42.700;23.124;2023-05-27T02:46:56;4.10;;;3.70;;
10717;SDS011;13513;42.700;23.124;2023-05-27T02:49:27;3.83;;;3.20;;
10717;SDS011;13513;42.700;23.124;2023-05-27T02:51:57;4.10;;;2.98;;
10717;SDS011;13513;42.700;23.124;2023-05-27T02:54:28;3.10;;;2.90;;
10717;SDS011;13513;42.700;23.124;2023-05-27T02:56:58;2.98;;;2.77;;
10717;SDS011;13513;42.700;23.124;2023-05-27T02:59:29;2.62;;;2.42;;
10717;SDS011;13513;42.700;23.124;2023-05-27T03:02:00;2.98;;;2.77;;
10717;SDS011;13513;42.700;23.124;2023-05-27T03:04:31;3.40;;;2.90;;
10717;SDS011;13513;42.700;23.124;2023-05-27T03:07:02;2.90;;;2.60;;
10717;SDS011;13513;42.700;23.124;2023-05-27T03:09:33;3.02;;;2.67;;
10717;SDS011;13513;42.700;23.124;2023-05-27T03:12:04;3.27;;;2.98;;
10717;SDS011;13513;42.700;23.124;2023-05-27T03:14:34;4.78;;;2.80;;
10717;SDS011;13513;42.700;23.124;2023-05-27T03:17:05;4.70;;;3.05;;
10717;SDS011;13513;42.700;23.124;2023-05-27T03:19:35;2.65;;;2.45;;
10717;SDS011;13513;42.700;23.124;2023-05-27T03:22:06;3.12;;;2.25;;
10717;SDS011;13513;42.700;23.124;2023-05-27T03:24:37;2.22;;;2.02;;
10717;SDS011;13513;42.700;23.124;2023-05-27T03:27:08;2.05;;;1.95;;
10717;SDS011;13513;42.700;23.124;2023-05-27T03:29:39;2.85;;;2.37;;
10717;SDS011;13513;42.700;23.124;2023-05-27T03:32:10;4.15;;;2.90;;
10717;SDS011;13513;42.700;23.124;2023-05-27T03:34:42;5.77;;;3.17;;
10717;SDS011;13513;42.700;23.124;2023-05-27T03:37:12;2.95;;;2.67;;
10717;SDS011;13513;42.700;23.124;2023-05-27T03:39:42;3.90;;;2.40;;
10717;SDS011;13513;42.700;23.124;2023-05-27T03:42:12;3.00;;;2.70;;
10717;SDS011;13513;42.700;23.124;2023-05-27T03:44:43;2.77;;;2.58;;
10717;SDS011;13513;42.700;23.124;2023-05-27T03:47:13;3.15;;;2.20;;
10717;SDS011;13513;42.700;23.124;2023-05-27T03:49:43;3.65;;;2.60;;
10717;SDS011;13513;42.700;23.124;2023-05-27T03:52:14;2.95;;;2.70;;
10717;SDS011;13513;42.700;23.124;2023-05-27T03:54:48;3.80;;;2.83;;
10717;SDS011;13513;42.700;23.124;2023-05-27T03:57:19;3.35;;;2.80;;
10717;SDS011;13513;42.700;23.124;2023-05-27T03:59:50;37.48;;;27.15;;
10717;SDS011;13513;42.700;23.124;2023-05-27T04:02:21;4.58;;;2.80;;
10717;SDS011;13513;42.700;23.124;2023-05-27T04:04:51;3.55;;;2.90;;
10717;SDS011;13513;42.700;23.124;2023-05-27T04:07:22;2.98;;;2.50;;
10717;SDS011;13513;42.700;23.124;2023-05-27T04:09:53;2.37;;;2.17;;
10717;SDS011;13513;42.700;23.124;2023-05-27T04:12:24;3.42;;;2.25;;
10717;SDS011;13513;42.700;23.124;2023-05-27T04:14:58;4.12;;;2.20;;
10717;SDS011;13513;42.700;23.124;2023-05-27T04:17:28;2.58;;;2.30;;
10717;SDS011;13513;42.700;23.124;2023-05-27T04:19:59;2.25;;;2.05;;
10717;SDS011;13513;42.700;23.124;2023-05-27T04:22:34;2.42;;;2.22;;
10717;SDS011;13513;42.700;23.124;2023-05-27T04:25:05;3.12;;;2.70;;
10717;SDS011;13513;42.700;23.124;2023-05-27T04:27:36;4.03;;;3.08;;
10717;SDS011;13513;42.700;23.124;2023-05-27T04:30:06;2.45;;;2.25;;
10717;SDS011;13513;42.700;23.124;2023-05-27T04:32:37;2.85;;;2.20;;
10717;SDS011;13513;42.700;23.124;2023-05-27T04:35:08;2.50;;;2.30;;
10717;SDS011;13513;42.700;23.124;2023-05-27T04:37:39;2.47;;;2.27;;
10717;SDS011;13513;42.700;23.124;2023-05-27T04:40:11;2.58;;;2.37;;
10717;SDS011;13513;42.700;23.124;2023-05-27T04:42:41;2.58;;;2.37;;
10717;SDS011;13513;42.700;23.124;2023-05-27T04:45:12;8.75;;;2.50;;
10717;SDS011;13513;42.700;23.124;2023-05-27T04:47:43;2.77;;;2.40;;
10717;SDS011;13513;42.700;23.124;2023-05-27T04:50:14;6.12;;;2.65;;
10717;SDS011;13513;42.700;23.124;2023-05-27T04:52:45;2.35;;;2.25;;
10717;SDS011;13513;42.700;23.124;2023-05-27T04:55:16;2.30;;;2.10;;
10717;SDS011;13513;42.700;23.124;2023-05-27T04:57:45;1.87;;;1.77;;
10717;SDS011;13513;42.700;23.124;2023-05-27T05:00:16;3.02;;;2.65;;
10717;SDS011;13513;42.700;23.124;2023-05-27T05:02:47;2.60;;;2.40;;
10717;SDS011;13513;42.700;23.124;2023-05-27T05:05:18;3.08;;;2.47;;
10717;SDS011;13513;42.700;23.124;2023-05-27T05:07:49;3.60;;;3.30;;
10717;SDS011;13513;42.700;23.124;2023-05-27T05:10:19;2.45;;;2.25;;
10717;SDS011;13513;42.700;23.124;2023-05-27T05:12:51;2.70;;;2.50;;
10717;SDS011;13513;42.700;23.124;2023-05-27T05:15:22;2.60;;;2.40;;
10717;SDS011;13513;42.700;23.124;2023-05-27T05:17:53;2.80;;;2.45;;
10717;SDS011;13513;42.700;23.124;2023-05-27T05:20:24;2.92;;;2.72;;
10717;SDS011;13513;42.700;23.124;2023-05-27T05:22:55;3.02;;;2.77;;
10717;SDS011;13513;42.700;23.124;2023-05-27T05:25:26;2.85;;;2.65;;
10717;SDS011;13513;42.700;23.124;2023-05-27T05:27:59;3.90;;;3.10;;
10717;SDS011;13513;42.700;23.124;2023-05-27T05:30:31;3.62;;;3.25;;
10717;SDS011;13513;42.700;23.124;2023-05-27T05:33:00;3.33;;;2.95;;
10717;SDS011;13513;42.700;23.124;2023-05-27T05:35:31;5.67;;;4.47;;
10717;SDS011;13513;42.700;23.124;2023-05-27T05:38:02;5.30;;;3.55;;
10717;SDS011;13513;42.700;23.124;2023-05-27T05:40:33;3.90;;;3.50;;
10717;SDS011;13513;42.700;23.124;2023-05-27T05:43:04;4.45;;;3.40;;
10717;SDS011;13513;42.700;23.124;2023-05-27T05:45:35;5.55;;;3.80;;
10717;SDS011;13513;42.700;23.124;2023-05-27T05:48:06;5.30;;;4.50;;
10717;SDS011;13513;42.700;23.124;2023-05-27T05:50:37;5.00;;;4.53;;
10717;SDS011;13513;42.700;23.124;2023-05-27T05:53:09;8.28;;;5.45;;
10717;SDS011;13513;42.700;23.124;2023-05-27T05:55:39;7.05;;;5.53;;
10717;SDS011;13513;42.700;23.124;2023-05-27T05:58:10;6.62;;;5.80;;
10717;SDS011;13513;42.700;23.124;2023-05-27T06:00:40;6.67;;;5.35;;
10717;SDS011;13513;42.700;23.124;2023-05-27T06:03:11;7.08;;;6.17;;
10717;SDS011;13513;42.700;23.124;2023-05-27T06:05:41;7.35;;;5.85;;
10717;SDS011;13513;42.700;23.124;2023-05-27T06:08:12;7.08;;;5.95;;
10717;SDS011;13513;42.700;23.124;2023-05-27T06:10:43;7.15;;;6.45;;
10717;SDS011;13513;42.700;23.124;2023-05-27T06:13:15;8.55;;;6.03;;
10717;SDS011;13513;42.700;23.124;2023-05-27T06:15:46;9.53;;;6.22;;
10717;SDS011;13513;42.700;23.124;2023-05-27T06:18:17;5.85;;;5.22;;
10717;SDS011;13513;42.700;23.124;2023-05-27T06:20:47;7.33;;;6.15;;
10717;SDS011;13513;42.700;23.124;2023-05-27T06:23:19;6.67;;;6.00;;
10717;SDS011;13513;42.700;23.124;2023-05-27T06:25:49;7.22;;;6.08;;
10717;SDS011;13513;42.700;23.124;2023-05-27T06:28:20;6.40;;;5.70;;
10717;SDS011;13513;42.700;23.124;2023-05-27T06:30:51;7.40;;;6.03;;
10717;SDS011;13513;42.700;23.124;2023-05-27T06:33:22;6.95;;;5.33;;
10717;SDS011;13513;42.700;23.124;2023-05-27T06:35:52;7.72;;;5.87;;
10717;SDS011;13513;42.700;23.124;2023-05-27T06:38:23;6.33;;;5.72;;
10717;SDS011;13513;42.700;23.124;2023-05-27T06:40:54;6.70;;;5.30;;
10717;SDS011;13513;42.700;23.124;2023-05-27T06:43:25;6.83;;;5.62;;
10717;SDS011;13513;42.700;23.124;2023-05-27T06:45:55;8.73;;;5.83;;
10717;SDS011;13513;42.700;23.124;2023-05-27T06:48:26;7.12;;;5.47;;
10717;SDS011;13513;42.700;23.124;2023-05-27T06:50:57;7.67;;;6.10;;
10717;SDS011;13513;42.700;23.124;2023-05-27T06:53:28;9.23;;;6.53;;
10717;SDS011;13513;42.700;23.124;2023-05-27T06:55:58;9.70;;;6.10;;
10717;SDS011;13513;42.700;23.124;2023-05-27T06:58:29;10.05;;;6.92;;
10717;SDS011;13513;42.700;23.124;2023-05-27T07:01:00;7.78;;;6.35;;
10717;SDS011;13513;42.700;23.124;2023-05-27T07:03:30;7.33;;;5.95;;
10717;SDS011;13513;42.700;23.124;2023-05-27T07:06:01;6.45;;;5.72;;
10717;SDS011;13513;42.700;23.124;2023-05-27T07:08:31;6.92;;;5.67;;
10717;SDS011;13513;42.700;23.124;2023-05-27T07:11:02;7.70;;;5.72;;
10717;SDS011;13513;42.700;23.124;2023-05-27T07:13:33;8.08;;;5.70;;
10717;SDS011;13513;42.700;23.124;2023-05-27T07:16:04;7.10;;;5.97;;
10717;SDS011;13513;42.700;23.124;2023-05-27T07:18:34;6.55;;;5.90;;
10717;SDS011;13513;42.700;23.124;2023-05-27T07:21:05;5.92;;;5.33;;
10717;SDS011;13513;42.700;23.124;2023-05-27T07:23:36;6.42;;;5.37;;
10717;SDS011;13513;42.700;23.124;2023-05-27T07:26:07;8.25;;;5.20;;
10717;SDS011;13513;42.700;23.124;2023-05-27T07:28:38;5.65;;;5.10;;
10717;SDS011;13513;42.700;23.124;2023-05-27T07:31:09;5.97;;;5.08;;
10717;SDS011;13513;42.700;23.124;2023-05-27T07:33:39;4.75;;;4.30;;
10717;SDS011;13513;42.700;23.124;2023-05-27T07:36:09;5.55;;;4.95;;
10717;SDS011;13513;42.700;23.124;2023-05-27T07:38:40;5.65;;;5.10;;
10717;SDS011;13513;42.700;23.124;2023-05-27T07:41:12;5.87;;;5.28;;
10717;SDS011;13513;42.700;23.124;2023-05-27T07:43:43;5.60;;;5.10;;
10717;SDS011;13513;42.700;23.124;2023-05-27T07:46:13;8.10;;;5.58;;
10717;SDS011;13513;42.700;23.124;2023-05-27T07:48:44;6.90;;;5.72;;
10717;SDS011;13513;42.700;23.124;2023-05-27T07:51:15;7.35;;;5.10;;
10717;SDS011;13513;42.700;23.124;2023-05-27T07:53:47;6.10;;;5.22;;
10717;SDS011;13513;42.700;23.124;2023-05-27T07:56:18;7.35;;;5.20;;
10717;SDS011;13513;42.700;23.124;2023-05-27T07:58:48;5.92;;;5.28;;
10717;SDS011;13513;42.700;23.124;2023-05-27T08:01:19;5.58;;;5.08;;
10717;SDS011;13513;42.700;23.124;2023-05-27T08:03:49;5.75;;;5.00;;
10717;SDS011;13513;42.700;23.124;2023-05-27T08:06:20;5.90;;;5.30;;
10717;SDS011;13513;42.700;23.124;2023-05-27T08:08:50;5.78;;;5.10;;
10717;SDS011;13513;42.700;23.124;2023-05-27T08:11:20;6.42;;;4.87;;
10717;SDS011;13513;42.700;23.124;2023-05-27T08:13:51;5.85;;;5.28;;
10717;SDS011;13513;42.700;23.124;2023-05-27T08:16:21;6.47;;;5.33;;
10717;SDS011;13513;42.700;23.124;2023-05-27T08:18:52;6.70;;;5.60;;
10717;SDS011;13513;42.700;23.124;2023-05-27T08:21:24;6.58;;;4.78;;
10717;SDS011;13513;42.700;23.124;2023-05-27T08:23:55;7.37;;;4.90;;
10717;SDS011;13513;42.700;23.124;2023-05-27T08:26:25;5.55;;;4.40;;
10717;SDS011;13513;42.700;23.124;2023-05-27T08:28:56;7.83;;;4.08;;
10717;SDS011;13513;42.700;23.124;2023-05-27T08:31:26;5.50;;;4.65;;
10717;SDS011;13513;42.700;23.124;2023-05-27T08:33:57;5.65;;;5.05;;
10717;SDS011;13513;42.700;23.124;2023-05-27T08:36:29;6.00;;;4.37;;
10717;SDS011;13513;42.700;23.124;2023-05-27T08:39:00;5.42;;;4.92;;
10717;SDS011;13513;42.700;23.124;2023-05-27T08:41:31;5.60;;;5.10;;
10717;SDS011;13513;42.700;23.124;2023-05-27T08:44:02;9.38;;;5.10;;
10717;SDS011;13513;42.700;23.124;2023-05-27T08:46:33;7.12;;;5.20;;
10717;SDS011;13513;42.700;23.124;2023-05-27T08:49:05;6.95;;;5.42;;
10717;SDS011;13513;42.700;23.124;2023-05-27T08:51:39;5.75;;;5.25;;
10717;SDS011;13513;42.700;23.124;2023-05-27T08:54:09;6.58;;;5.95;;
10717;SDS011;13513;42.700;23.124;2023-05-27T08:56:40;6.97;;;4.78;;
10717;SDS011;13513;42.700;23.124;2023-05-27T08:59:30;8.93;;;5.37;;
10717;SDS011;13513;42.700;23.124;2023-05-27T09:02:01;6.33;;;5.72;;
10717;SDS011;13513;42.700;23.124;2023-05-27T09:04:33;5.75;;;5.17;;
10717;SDS011;13513;42.700;23.124;2023-05-27T09:07:07;5.70;;;4.85;;
10717;SDS011;13513;42.700;23.124;2023-05-27T09:09:38;5.42;;;4.92;;
10717;SDS011;13513;42.700;23.124;2023-05-27T09:12:09;5.60;;;4.92;;
10717;SDS011;13513;42.700;23.124;2023-05-27T09:14:40;5.35;;;4.85;;
10717;SDS011;13513;42.700;23.124;2023-05-27T09:17:11;7.90;;;5.15;;
10717;SDS011;13513;42.700;23.124;2023-05-27T09:19:44;8.23;;;5.70;;
10717;SDS011;13513;42.700;23.124;2023-05-27T09:22:31;8.65;;;5.45;;
10717;SDS011;13513;42.700;23.124;2023-05-27T09:25:01;5.55;;;5.00;;
10717;SDS011;13513;42.700;23.124;2023-05-27T09:27:32;6.30;;;4.97;;
10717;SDS011;13513;42.700;23.124;2023-05-27T09:30:09;11.70;;;5.37;;
10717;SDS011;13513;42.700;23.124;2023-05-27T09:32:43;5.75;;;4.90;;
10717;SDS011;13513;42.700;23.124;2023-05-27T09:35:15;7.62;;;5.67;;
10717;SDS011;13513;42.700;23.124;2023-05-27T09:37:45;10.08;;;5.70;;
10717;SDS011;13513;42.700;23.124;2023-05-27T09:40:18;6.45;;;5.62;;
10717;SDS011;13513;42.700;23.124;2023-05-27T09:42:49;5.67;;;4.53;;
10717;SDS011;13513;42.700;23.124;2023-05-27T09:45:21;5.95;;;5.35;;
10717;SDS011;13513;42.700;23.124;2023-05-27T09:47:52;6.65;;;4.70;;
10717;SDS011;13513;42.700;23.124;2023-05-27T09:50:23;9.03;;;4.80;;
10717;SDS011;13513;42.700;23.124;2023-05-27T09:52:55;5.92;;;5.30;;
10717;SDS011;13513;42.700;23.124;2023-05-27T09:55:29;7.28;;;5.15;;
10717;SDS011;13513;42.700;23.124;2023-05-27T09:58:00;5.78;;;4.92;;
10717;SDS011;13513;42.700;23.124;2023-05-27T10:00:30;6.12;;;4.75;;
10717;SDS011;13513;42.700;23.124;2023-05-27T10:03:05;5.72;;;4.50;;
10717;SDS011;13513;42.700;23.124;2023-05-27T10:05:37;7.72;;;4.87;;
10717;SDS011;13513;42.700;23.124;2023-05-27T10:08:08;7.37;;;5.30;;
10717;SDS011;13513;42.700;23.124;2023-05-27T10:10:41;7.72;;;4.87;;
10717;SDS011;13513;42.700;23.124;2023-05-27T10:13:16;7.22;;;3.90;;
10717;SDS011;13513;42.700;23.124;2023-05-27T10:15:48;8.28;;;3.60;;
10717;SDS011;13513;42.700;23.124;2023-05-27T10:18:25;4.00;;;3.62;;
10717;SDS011;13513;42.700;23.124;2023-05-27T10:20:56;4.22;;;3.70;;
10717;SDS011;13513;42.700;23.124;2023-05-27T10:23:30;4.10;;;3.70;;
10717;SDS011;13513;42.700;23.124;2023-05-27T10:26:04;4.30;;;3.85;;
10717;SDS011;13513;42.700;23.124;2023-05-27T10:28:37;3.83;;;3.47;;
10717;SDS011;13513;42.700;23.124;2023-05-27T10:31:09;6.87;;;3.52;;
10717;SDS011;13513;42.700;23.124;2023-05-27T10:33:47;5.22;;;3.30;;
10717;SDS011;13513;42.700;23.124;2023-05-27T10:36:27;6.08;;;3.58;;
10717;SDS011;13513;42.700;23.124;2023-05-27T10:39:12;3.83;;;3.08;;
10717;SDS011;13513;42.700;23.124;2023-05-27T10:41:50;7.92;;;3.72;;
10717;SDS011;13513;42.700;23.124;2023-05-27T10:44:35;5.53;;;3.55;;
10717;SDS011;13513;42.700;23.124;2023-05-27T10:47:10;4.20;;;3.55;;
10717;SDS011;13513;42.700;23.124;2023-05-27T10:49:47;5.62;;;3.87;;
10717;SDS011;13513;42.700;23.124;2023-05-27T10:52:22;5.00;;;4.15;;
10717;SDS011;13513;42.700;23.124;2023-05-27T10:54:53;4.87;;;3.87;;
10717;SDS011;13513;42.700;23.124;2023-05-27T10:57:25;3.70;;;3.40;;
10717;SDS011;13513;42.700;23.124;2023-05-27T10:59:59;4.35;;;3.95;;
10717;SDS011;13513;42.700;23.124;2023-05-27T11:02:32;4.75;;;3.80;;
10717;SDS011;13513;42.700;23.124;2023-05-27T11:05:09;4.97;;;3.52;;
10717;SDS011;13513;42.700;23.124;2023-05-27T11:07:41;4.65;;;3.90;;
10717;SDS011;13513;42.700;23.124;2023-05-27T11:10:13;9.55;;;4.12;;
10717;SDS011;13513;42.700;23.124;2023-05-27T11:12:44;4.72;;;4.03;;
10717;SDS011;13513;42.700;23.124;2023-05-27T11:15:14;5.85;;;3.67;;
10717;SDS011;13513;42.700;23.124;2023-05-27T11:17:44;6.97;;;3.90;;
10717;SDS011;13513;42.700;23.124;2023-05-27T11:20:15;4.78;;;3.65;;
10717;SDS011;13513;42.700;23.124;2023-05-27T11:22:49;4.37;;;3.60;;
10717;SDS011;13513;42.700;23.124;2023-05-27T11:25:19;6.22;;;4.00;;
10717;SDS011;13513;42.700;23.124;2023-05-27T11:27:50;4.33;;;3.75;;
10717;SDS011;13513;42.700;23.124;2023-05-27T11:30:24;4.78;;;3.58;;
10717;SDS011;13513;42.700;23.124;2023-05-27T11:33:01;4.60;;;3.55;;
10717;SDS011;13513;42.700;23.124;2023-05-27T11:35:27;4.03;;;3.62;;
10717;SDS011;13513;42.700;23.124;2023-05-27T11:37:59;6.85;;;4.28;;
10717;SDS011;13513;42.700;23.124;2023-05-27T11:40:35;4.30;;;3.72;;
10717;SDS011;13513;42.700;23.124;2023-05-27T11:43:07;6.80;;;4.30;;
10717;SDS011;13513;42.700;23.124;2023-05-27T11:45:38;4.75;;;3.60;;
10717;SDS011;13513;42.700;23.124;2023-05-27T11:48:09;4.78;;;3.85;;
10717;SDS011;13513;42.700;23.124;2023-05-27T11:50:39;3.83;;;3.52;;
10717;SDS011;13513;42.700;23.124;2023-05-27T11:53:11;4.95;;;3.92;;
10717;SDS011;13513;42.700;23.124;2023-05-27T11:55:45;5.30;;;3.67;;
10717;SDS011;13513;42.700;23.124;2023-05-27T11:58:16;7.85;;;3.30;;
10717;SDS011;13513;42.700;23.124;2023-05-27T12:00:47;3.92;;;3.37;;
10717;SDS011;13513;42.700;23.124;2023-05-27T12:03:18;4.67;;;4.10;;
10717;SDS011;13513;42.700;23.124;2023-05-27T12:05:48;4.15;;;3.85;;
10717;SDS011;13513;42.700;23.124;2023-05-27T12:08:19;4.62;;;3.45;;
10717;SDS011;13513;42.700;23.124;2023-05-27T12:10:50;3.72;;;3.40;;
10717;SDS011;13513;42.700;23.124;2023-05-27T12:13:21;5.72;;;3.70;;
10717;SDS011;13513;42.700;23.124;2023-05-27T12:15:51;4.12;;;3.72;;
10717;SDS011;13513;42.700;23.124;2023-05-27T12:18:26;4.50;;;3.98;;
10717;SDS011;13513;42.700;23.124;2023-05-27T12:21:00;4.80;;;3.72;;
10717;SDS011;13513;42.700;23.124;2023-05-27T12:23:29;6.92;;;3.90;;
10717;SDS011;13513;42.700;23.124;2023-05-27T12:26:00;4.78;;;3.80;;
10717;SDS011;13513;42.700;23.124;2023-05-27T12:28:30;4.67;;;3.90;;
10717;SDS011;13513;42.700;23.124;2023-05-27T12:31:02;6.10;;;4.03;;
10717;SDS011;13513;42.700;23.124;2023-05-27T12:33:33;4.17;;;3.70;;
10717;SDS011;13513;42.700;23.124;2023-05-27T12:36:04;4.83;;;3.40;;
10717;SDS011;13513;42.700;23.124;2023-05-27T12:38:34;5.28;;;3.83;;
10717;SDS011;13513;42.700;23.124;2023-05-27T12:41:05;5.20;;;3.50;;
10717;SDS011;13513;42.700;23.124;2023-05-27T12:43:35;4.45;;;3.90;;
10717;SDS011;13513;42.700;23.124;2023-05-27T12:46:06;5.17;;;3.85;;
10717;SDS011;13513;42.700;23.124;2023-05-27T12:48:37;6.40;;;3.95;;
10717;SDS011;13513;42.700;23.124;2023-05-27T12:51:07;4.70;;;3.72;;
10717;SDS011;13513;42.700;23.124;2023-05-27T12:53:41;4.30;;;3.40;;
10717;SDS011;13513;42.700;23.124;2023-05-27T12:56:11;4.55;;;3.75;;
10717;SDS011;13513;42.700;23.124;2023-05-27T12:58:42;4.03;;;3.55;;
10717;SDS011;13513;42.700;23.124;2023-05-27T13:01:13;3.83;;;3.52;;
10717;SDS011;13513;42.700;23.124;2023-05-27T13:03:44;4.20;;;3.35;;
10717;SDS011;13513;42.700;23.124;2023-05-27T13:06:15;5.15;;;3.72;;
10717;SDS011;13513;42.700;23.124;2023-05-27T13:08:47;5.92;;;3.42;;
10717;SDS011;13513;42.700;23.124;2023-05-27T13:11:18;4.33;;;3.55;;
10717;SDS011;13513;42.700;23.124;2023-05-27T13:13:49;5.37;;;3.40;;
10717;SDS011;13513;42.700;23.124;2023-05-27T13:16:19;4.45;;;4.00;;
10717;SDS011;13513;42.700;23.124;2023-05-27T13:18:50;4.10;;;3.70;;
10717;SDS011;13513;42.700;23.124;2023-05-27T13:21:21;4.00;;;3.40;;
10717;SDS011;13513;42.700;23.124;2023-05-27T13:23:51;5.62;;;3.98;;
10717;SDS011;13513;42.700;23.124;2023-05-27T13:26:22;3.77;;;3.40;;
10717;SDS011;13513;42.700;23.124;2023-05-27T13:28:53;3.50;;;3.20;;
10717;SDS011;13513;42.700;23.124;2023-05-27T13:31:24;6.72;;;3.67;;
10717;SDS011;13513;42.700;23.124;2023-05-27T13:33:55;5.50;;;3.40;;
10717;SDS011;13513;42.700;23.124;2023-05-27T13:36:26;4.42;;;3.58;;
10717;SDS011;13513;42.700;23.124;2023-05-27T13:38:57;3.55;;;3.25;;
10717;SDS011;13513;42.700;23.124;2023-05-27T13:41:28;4.28;;;3.42;;
10717;SDS011;13513;42.700;23.124;2023-05-27T13:43:59;4.20;;;3.80;;
10717;SDS011;13513;42.700;23.124;2023-05-27T13:46:29;4.67;;;3.70;;
10717;SDS011;13513;42.700;23.124;2023-05-27T13:49:00;7.80;;;3.85;;
10717;SDS011;13513;42.700;23.124;2023-05-27T13:51:31;6.83;;;3.87;;
10717;SDS011;13513;42.700;23.124;2023-05-27T13:54:02;4.22;;;3.83;;
10717;SDS011;13513;42.700;23.124;2023-05-27T13:56:31;5.70;;;3.60;;
10717;SDS011;13513;42.700;23.124;2023-05-27T13:59:02;4.58;;;3.22;;
10717;SDS011;13513;42.700;23.124;2023-05-27T14:01:33;3.55;;;3.25;;
10717;SDS011;13513;42.700;23.124;2023-05-27T14:04:04;5.75;;;3.65;;
10717;SDS011;13513;42.700;23.124;2023-05-27T14:06:35;5.10;;;3.40;;
10717;SDS011;13513;42.700;23.124;2023-05-27T14:09:05;4.50;;;3.62;;
10717;SDS011;13513;42.700;23.124;2023-05-27T14:11:35;4.65;;;3.77;;
10717;SDS011;13513;42.700;23.124;2023-05-27T14:14:08;5.97;;;4.00;;
10717;SDS011;13513;42.700;23.124;2023-05-27T14:16:39;3.92;;;3.40;;
10717;SDS011;13513;42.700;23.124;2023-05-27T14:19:10;5.22;;;3.60;;
10717;SDS011;13513;42.700;23.124;2023-05-27T14:21:41;5.65;;;3.35;;
10717;SDS011;13513;42.700;23.124;2023-05-27T14:24:12;5.05;;;3.47;;
10717;SDS011;13513;42.700;23.124;2023-05-27T14:26:42;7.37;;;3.33;;
10717;SDS011;13513;42.700;23.124;2023-05-27T14:29:13;4.00;;;3.42;;
10717;SDS011;13513;42.700;23.124;2023-05-27T14:31:44;4.65;;;3.67;;
10717;SDS011;13513;42.700;23.124;2023-05-27T14:34:17;4.25;;;3.85;;
10717;SDS011;13513;42.700;23.124;2023-05-27T14:36:50;4.87;;;3.65;;
10717;SDS011;13513;42.700;23.124;2023-05-27T14:39:22;4.75;;;3.65;;
10717;SDS011;13513;42.700;23.124;2023-05-27T14:41:56;7.12;;;3.45;;
10717;SDS011;13513;42.700;23.124;2023-05-27T14:44:27;5.95;;;4.50;;
10717;SDS011;13513;42.700;23.124;2023-05-27T14:46:58;4.72;;;3.67;;
10717;SDS011;13513;42.700;23.124;2023-05-27T14:49:30;5.08;;;3.67;;
10717;SDS011;13513;42.700;23.124;2023-05-27T14:52:00;4.33;;;3.50;;
10717;SDS011;13513;42.700;23.124;2023-05-27T14:54:30;4.45;;;3.40;;
10717;SDS011;13513;42.700;23.124;2023-05-27T14:57:07;3.62;;;3.30;;